sensor_id;sensor_type;location;lat;lon;timestamp;P1;durP1;ratioP1;P2;durP2;ratioP2
66739;SDS011;53653;52.188;8.602;2024-01-15T00:01:49;27.47;;;9.40;;
66739;SDS011;53653;52.188;8.602;2024-01-15T00:04:15;25.35;;;9.48;;
66739;SDS011;53653;52.188;8.602;2024-01-15T00:06:41;22.73;;;7.97;;
66739;SDS011;53653;52.188;8.602;2024-01-15T00:09:06;22.98;;;9.23;;
66739;SDS011;53653;52.188;8.602;2024-01-15T00:11:32;23.73;;;8.23;;
66739;SDS011;53653;52.188;8.602;2024-01-15T00:13:58;26.88;;;8.75;;
66739;SDS011;53653;52.188;8.602;2024-01-15T00:16:24;20.40;;;8.27;;
66739;SDS011;53653;52.188;8.602;2024-01-15T00:18:49;21.33;;;7.57;;
66739;SDS011;53653;52.188;8.602;2024-01-15T00:21:15;24.70;;;8.77;;
66739;SDS011;53653;52.188;8.602;2024-01-15T00:23:44;20.73;;;8.45;;
66739;SDS011;53653;52.188;8.602;2024-01-15T00:26:10;18.03;;;6.60;;
66739;SDS011;53653;52.188;8.602;2024-01-15T00:28:36;20.90;;;8.13;;
66739;SDS011;53653;52.188;8.602;2024-01-15T00:31:02;19.88;;;7.15;;
66739;SDS011;53653;52.188;8.602;2024-01-15T00:33:29;21.25;;;7.13;;
66739;SDS011;53653;52.188;8.602;2024-01-15T00:35:54;17.13;;;7.23;;
66739;SDS011;53653;52.188;8.602;2024-01-15T00:38:20;22.27;;;6.95;;
66739;SDS011;53653;52.188;8.602;2024-01-15T00:40:45;18.90;;;6.23;;
66739;SDS011;53653;52.188;8.602;2024-01-15T00:43:11;20.27;;;5.97;;
66739;SDS011;53653;52.188;8.602;2024-01-15T00:45:37;16.00;;;6.38;;
66739;SDS011;53653;52.188;8.602;2024-01-15T00:48:02;17.37;;;6.23;;
66739;SDS011;53653;52.188;8.602;2024-01-15T00:50:29;17.60;;;7.28;;
66739;SDS011;53653;52.188;8.602;2024-01-15T00:52:54;15.48;;;5.18;;
66739;SDS011;53653;52.188;8.602;2024-01-15T00:55:20;15.17;;;5.53;;
66739;SDS011;53653;52.188;8.602;2024-01-15T00:57:45;13.20;;;5.27;;
66739;SDS011;53653;52.188;8.602;2024-01-15T01:00:11;18.27;;;5.28;;
66739;SDS011;53653;52.188;8.602;2024-01-15T01:02:37;17.88;;;5.40;;
66739;SDS011;53653;52.188;8.602;2024-01-15T01:05:03;13.57;;;5.13;;
66739;SDS011;53653;52.188;8.602;2024-01-15T01:07:30;14.35;;;4.57;;
66739;SDS011;53653;52.188;8.602;2024-01-15T01:09:55;11.63;;;4.73;;
66739;SDS011;53653;52.188;8.602;2024-01-15T01:12:21;14.65;;;5.20;;
66739;SDS011;53653;52.188;8.602;2024-01-15T01:14:46;16.97;;;4.90;;
66739;SDS011;53653;52.188;8.602;2024-01-15T01:17:12;14.47;;;4.60;;
66739;SDS011;53653;52.188;8.602;2024-01-15T01:19:38;11.52;;;4.03;;
66739;SDS011;53653;52.188;8.602;2024-01-15T01:22:03;16.23;;;4.73;;
66739;SDS011;53653;52.188;8.602;2024-01-15T01:24:29;15.27;;;5.20;;
66739;SDS011;53653;52.188;8.602;2024-01-15T01:26:55;14.47;;;4.33;;
66739;SDS011;53653;52.188;8.602;2024-01-15T01:29:20;13.68;;;4.47;;
66739;SDS011;53653;52.188;8.602;2024-01-15T01:31:46;13.75;;;4.07;;
66739;SDS011;53653;52.188;8.602;2024-01-15T01:34:15;13.93;;;4.73;;
66739;SDS011;53653;52.188;8.602;2024-01-15T01:36:41;13.60;;;3.95;;
66739;SDS011;53653;52.188;8.602;2024-01-15T01:39:07;11.18;;;3.30;;
66739;SDS011;53653;52.188;8.602;2024-01-15T01:41:34;10.47;;;3.83;;
66739;SDS011;53653;52.188;8.602;2024-01-15T01:44:00;9.77;;;2.50;;
66739;SDS011;53653;52.188;8.602;2024-01-15T01:46:26;13.38;;;2.83;;
66739;SDS011;53653;52.188;8.602;2024-01-15T01:48:53;11.68;;;3.40;;
66739;SDS011;53653;52.188;8.602;2024-01-15T01:51:21;11.20;;;3.45;;
66739;SDS011;53653;52.188;8.602;2024-01-15T01:53:48;10.60;;;3.27;;
66739;SDS011;53653;52.188;8.602;2024-01-15T01:56:15;9.68;;;2.15;;
66739;SDS011;53653;52.188;8.602;2024-01-15T01:58:41;10.50;;;2.58;;
66739;SDS011;53653;52.188;8.602;2024-01-15T02:01:06;17.47;;;3.07;;
66739;SDS011;53653;52.188;8.602;2024-01-15T02:03:32;8.43;;;2.47;;
66739;SDS011;53653;52.188;8.602;2024-01-15T02:05:59;7.55;;;2.72;;
66739;SDS011;53653;52.188;8.602;2024-01-15T02:08:25;9.38;;;3.42;;
66739;SDS011;53653;52.188;8.602;2024-01-15T02:10:51;12.93;;;2.77;;
66739;SDS011;53653;52.188;8.602;2024-01-15T02:13:17;10.70;;;3.97;;
66739;SDS011;53653;52.188;8.602;2024-01-15T02:15:44;12.60;;;3.13;;
66739;SDS011;53653;52.188;8.602;2024-01-15T02:18:09;12.77;;;2.53;;
66739;SDS011;53653;52.188;8.602;2024-01-15T02:20:35;9.48;;;3.25;;
66739;SDS011;53653;52.188;8.602;2024-01-15T02:25:40;9.75;;;2.85;;
66739;SDS011;53653;52.188;8.602;2024-01-15T02:28:09;9.52;;;2.42;;
66739;SDS011;53653;52.188;8.602;2024-01-15T02:30:39;13.20;;;2.67;;
66739;SDS011;53653;52.188;8.602;2024-01-15T02:33:06;6.82;;;2.42;;
66739;SDS011;53653;52.188;8.602;2024-01-15T02:35:33;12.40;;;3.03;;
66739;SDS011;53653;52.188;8.602;2024-01-15T02:37:58;8.38;;;2.10;;
66739;SDS011;53653;52.188;8.602;2024-01-15T02:40:24;6.60;;;2.28;;
66739;SDS011;53653;52.188;8.602;2024-01-15T02:42:50;8.83;;;2.57;;
66739;SDS011;53653;52.188;8.602;2024-01-15T02:45:16;11.50;;;2.80;;
66739;SDS011;53653;52.188;8.602;2024-01-15T02:47:42;11.85;;;2.90;;
66739;SDS011;53653;52.188;8.602;2024-01-15T02:50:08;10.00;;;2.10;;
66739;SDS011;53653;52.188;8.602;2024-01-15T02:52:33;10.43;;;2.10;;
66739;SDS011;53653;52.188;8.602;2024-01-15T02:54:59;7.47;;;1.80;;
66739;SDS011;53653;52.188;8.602;2024-01-15T02:57:25;10.18;;;2.00;;
66739;SDS011;53653;52.188;8.602;2024-01-15T02:59:50;8.40;;;1.97;;
66739;SDS011;53653;52.188;8.602;2024-01-15T03:02:16;11.47;;;2.00;;
66739;SDS011;53653;52.188;8.602;2024-01-15T03:04:44;9.27;;;2.17;;
66739;SDS011;53653;52.188;8.602;2024-01-15T03:07:10;8.23;;;2.92;;
66739;SDS011;53653;52.188;8.602;2024-01-15T03:09:36;8.70;;;2.03;;
66739;SDS011;53653;52.188;8.602;2024-01-15T03:12:02;12.18;;;2.20;;
66739;SDS011;53653;52.188;8.602;2024-01-15T03:14:28;8.40;;;2.10;;
66739;SDS011;53653;52.188;8.602;2024-01-15T03:16:53;8.10;;;2.40;;
66739;SDS011;53653;52.188;8.602;2024-01-15T03:19:19;15.47;;;2.93;;
66739;SDS011;53653;52.188;8.602;2024-01-15T03:21:45;8.68;;;2.40;;
66739;SDS011;53653;52.188;8.602;2024-01-15T03:24:10;10.70;;;2.60;;
66739;SDS011;53653;52.188;8.602;2024-01-15T03:26:36;6.33;;;2.13;;
66739;SDS011;53653;52.188;8.602;2024-01-15T03:29:01;8.57;;;2.40;;
66739;SDS011;53653;52.188;8.602;2024-01-15T03:31:27;9.23;;;2.70;;
66739;SDS011;53653;52.188;8.602;2024-01-15T03:33:53;10.80;;;2.60;;
66739;SDS011;53653;52.188;8.602;2024-01-15T03:36:19;9.68;;;2.72;;
66739;SDS011;53653;52.188;8.602;2024-01-15T03:38:44;8.83;;;2.10;;
66739;SDS011;53653;52.188;8.602;2024-01-15T03:41:10;11.60;;;3.05;;
66739;SDS011;53653;52.188;8.602;2024-01-15T03:43:36;14.50;;;2.60;;
66739;SDS011;53653;52.188;8.602;2024-01-15T03:46:01;9.03;;;2.40;;
66739;SDS011;53653;52.188;8.602;2024-01-15T03:48:27;10.50;;;2.90;;
66739;SDS011;53653;52.188;8.602;2024-01-15T03:50:53;8.60;;;2.63;;
66739;SDS011;53653;52.188;8.602;2024-01-15T03:53:19;8.50;;;3.10;;
66739;SDS011;53653;52.188;8.602;2024-01-15T03:55:44;8.45;;;2.58;;
66739;SDS011;53653;52.188;8.602;2024-01-15T03:58:10;11.53;;;3.20;;
66739;SDS011;53653;52.188;8.602;2024-01-15T04:00:35;11.73;;;2.88;;
66739;SDS011;53653;52.188;8.602;2024-01-15T04:03:01;9.40;;;2.70;;
66739;SDS011;53653;52.188;8.602;2024-01-15T04:05:27;10.57;;;3.00;;
66739;SDS011;53653;52.188;8.602;2024-01-15T04:07:52;14.63;;;3.50;;
66739;SDS011;53653;52.188;8.602;2024-01-15T04:10:18;9.83;;;2.83;;
66739;SDS011;53653;52.188;8.602;2024-01-15T04:12:43;8.05;;;3.03;;
66739;SDS011;53653;52.188;8.602;2024-01-15T04:15:11;15.23;;;3.10;;
66739;SDS011;53653;52.188;8.602;2024-01-15T04:17:38;9.17;;;3.07;;
66739;SDS011;53653;52.188;8.602;2024-01-15T04:20:04;8.60;;;2.28;;
66739;SDS011;53653;52.188;8.602;2024-01-15T04:22:30;13.23;;;3.00;;
66739;SDS011;53653;52.188;8.602;2024-01-15T04:24:55;11.03;;;2.77;;
66739;SDS011;53653;52.188;8.602;2024-01-15T04:27:21;8.63;;;2.40;;
66739;SDS011;53653;52.188;8.602;2024-01-15T04:29:47;11.07;;;2.60;;
66739;SDS011;53653;52.188;8.602;2024-01-15T04:32:12;10.52;;;2.35;;
66739;SDS011;53653;52.188;8.602;2024-01-15T04:34:38;9.40;;;2.10;;
66739;SDS011;53653;52.188;8.602;2024-01-15T04:37:03;11.77;;;3.20;;
66739;SDS011;53653;52.188;8.602;2024-01-15T04:39:29;10.10;;;2.50;;
66739;SDS011;53653;52.188;8.602;2024-01-15T04:41:55;10.67;;;2.67;;
66739;SDS011;53653;52.188;8.602;2024-01-15T04:44:20;9.23;;;2.65;;
66739;SDS011;53653;52.188;8.602;2024-01-15T04:46:46;7.40;;;2.20;;
66739;SDS011;53653;52.188;8.602;2024-01-15T04:49:12;7.78;;;2.60;;
66739;SDS011;53653;52.188;8.602;2024-01-15T04:51:37;10.13;;;2.70;;
66739;SDS011;53653;52.188;8.602;2024-01-15T04:54:03;10.90;;;2.30;;
66739;SDS011;53653;52.188;8.602;2024-01-15T04:56:29;7.28;;;1.98;;
66739;SDS011;53653;52.188;8.602;2024-01-15T04:58:55;7.78;;;2.08;;
66739;SDS011;53653;52.188;8.602;2024-01-15T05:01:20;11.27;;;2.50;;
66739;SDS011;53653;52.188;8.602;2024-01-15T05:03:46;8.90;;;2.35;;
66739;SDS011;53653;52.188;8.602;2024-01-15T05:06:11;7.73;;;2.07;;
66739;SDS011;53653;52.188;8.602;2024-01-15T05:08:37;9.37;;;2.30;;
66739;SDS011;53653;52.188;8.602;2024-01-15T05:11:03;12.52;;;2.95;;
66739;SDS011;53653;52.188;8.602;2024-01-15T05:13:28;6.70;;;1.90;;
66739;SDS011;53653;52.188;8.602;2024-01-15T05:15:54;11.13;;;2.20;;
66739;SDS011;53653;52.188;8.602;2024-01-15T05:18:20;11.67;;;2.80;;
66739;SDS011;53653;52.188;8.602;2024-01-15T05:20:45;9.27;;;2.15;;
66739;SDS011;53653;52.188;8.602;2024-01-15T05:23:11;13.27;;;2.03;;
66739;SDS011;53653;52.188;8.602;2024-01-15T05:25:36;6.93;;;2.20;;
66739;SDS011;53653;52.188;8.602;2024-01-15T05:28:02;8.32;;;1.70;;
66739;SDS011;53653;52.188;8.602;2024-01-15T05:30:28;8.10;;;2.08;;
66739;SDS011;53653;52.188;8.602;2024-01-15T05:32:54;7.83;;;2.40;;
66739;SDS011;53653;52.188;8.602;2024-01-15T05:35:19;13.50;;;2.50;;
66739;SDS011;53653;52.188;8.602;2024-01-15T05:37:45;9.50;;;2.25;;
66739;SDS011;53653;52.188;8.602;2024-01-15T05:40:12;9.10;;;2.50;;
66739;SDS011;53653;52.188;8.602;2024-01-15T05:42:41;10.13;;;2.80;;
66739;SDS011;53653;52.188;8.602;2024-01-15T05:45:07;10.80;;;2.65;;
66739;SDS011;53653;52.188;8.602;2024-01-15T05:47:33;9.10;;;2.50;;
66739;SDS011;53653;52.188;8.602;2024-01-15T05:50:00;7.97;;;2.00;;
66739;SDS011;53653;52.188;8.602;2024-01-15T05:52:27;9.77;;;3.00;;
66739;SDS011;53653;52.188;8.602;2024-01-15T05:54:53;7.03;;;2.35;;
66739;SDS011;53653;52.188;8.602;2024-01-15T05:57:18;10.20;;;2.23;;
66739;SDS011;53653;52.188;8.602;2024-01-15T05:59:44;12.18;;;2.50;;
66739;SDS011;53653;52.188;8.602;2024-01-15T06:02:10;7.73;;;1.80;;
66739;SDS011;53653;52.188;8.602;2024-01-15T06:04:36;9.60;;;2.00;;
66739;SDS011;53653;52.188;8.602;2024-01-15T06:07:02;8.00;;;1.98;;
66739;SDS011;53653;52.188;8.602;2024-01-15T06:09:28;6.97;;;1.80;;
66739;SDS011;53653;52.188;8.602;2024-01-15T06:11:54;9.90;;;2.00;;
66739;SDS011;53653;52.188;8.602;2024-01-15T06:14:20;9.43;;;2.28;;
66739;SDS011;53653;52.188;8.602;2024-01-15T06:16:46;10.97;;;2.40;;
66739;SDS011;53653;52.188;8.602;2024-01-15T06:19:11;6.07;;;2.20;;
66739;SDS011;53653;52.188;8.602;2024-01-15T06:21:37;9.53;;;2.03;;
66739;SDS011;53653;52.188;8.602;2024-01-15T06:24:02;5.43;;;1.90;;
66739;SDS011;53653;52.188;8.602;2024-01-15T06:26:28;8.02;;;1.98;;
66739;SDS011;53653;52.188;8.602;2024-01-15T06:28:54;5.80;;;1.83;;
66739;SDS011;53653;52.188;8.602;2024-01-15T06:31:19;6.63;;;2.30;;
66739;SDS011;53653;52.188;8.602;2024-01-15T06:33:45;8.27;;;2.20;;
66739;SDS011;53653;52.188;8.602;2024-01-15T06:36:13;13.30;;;2.10;;
66739;SDS011;53653;52.188;8.602;2024-01-15T06:38:39;7.50;;;2.00;;
66739;SDS011;53653;52.188;8.602;2024-01-15T06:41:05;14.43;;;2.50;;
66739;SDS011;53653;52.188;8.602;2024-01-15T06:43:31;7.10;;;2.72;;
66739;SDS011;53653;52.188;8.602;2024-01-15T06:45:56;8.47;;;2.40;;
66739;SDS011;53653;52.188;8.602;2024-01-15T06:48:22;6.10;;;2.00;;
66739;SDS011;53653;52.188;8.602;2024-01-15T06:50:47;12.13;;;2.73;;
66739;SDS011;53653;52.188;8.602;2024-01-15T06:53:13;11.05;;;3.25;;
66739;SDS011;53653;52.188;8.602;2024-01-15T06:55:39;7.33;;;2.20;;
66739;SDS011;53653;52.188;8.602;2024-01-15T06:58:05;12.55;;;2.50;;
66739;SDS011;53653;52.188;8.602;2024-01-15T07:00:30;7.33;;;2.70;;
66739;SDS011;53653;52.188;8.602;2024-01-15T07:02:56;11.02;;;2.60;;
66739;SDS011;53653;52.188;8.602;2024-01-15T07:05:22;7.13;;;2.37;;
66739;SDS011;53653;52.188;8.602;2024-01-15T07:07:47;7.95;;;2.78;;
66739;SDS011;53653;52.188;8.602;2024-01-15T07:10:13;9.30;;;3.00;;
66739;SDS011;53653;52.188;8.602;2024-01-15T07:12:39;9.73;;;2.72;;
66739;SDS011;53653;52.188;8.602;2024-01-15T07:15:07;9.17;;;2.67;;
66739;SDS011;53653;52.188;8.602;2024-01-15T07:17:33;7.18;;;2.70;;
66739;SDS011;53653;52.188;8.602;2024-01-15T07:19:59;9.27;;;3.08;;
66739;SDS011;53653;52.188;8.602;2024-01-15T07:22:25;5.80;;;2.00;;
66739;SDS011;53653;52.188;8.602;2024-01-15T07:24:51;8.93;;;2.55;;
66739;SDS011;53653;52.188;8.602;2024-01-15T07:27:16;9.83;;;2.40;;
66739;SDS011;53653;52.188;8.602;2024-01-15T07:29:42;6.47;;;2.60;;
66739;SDS011;53653;52.188;8.602;2024-01-15T07:32:08;9.60;;;2.47;;
66739;SDS011;53653;52.188;8.602;2024-01-15T07:34:34;9.20;;;2.40;;
66739;SDS011;53653;52.188;8.602;2024-01-15T07:36:59;12.07;;;3.10;;
66739;SDS011;53653;52.188;8.602;2024-01-15T07:39:25;10.20;;;2.33;;
66739;SDS011;53653;52.188;8.602;2024-01-15T07:41:51;8.85;;;2.65;;
66739;SDS011;53653;52.188;8.602;2024-01-15T07:44:17;15.77;;;3.30;;
66739;SDS011;53653;52.188;8.602;2024-01-15T07:46:46;7.30;;;2.70;;
66739;SDS011;53653;52.188;8.602;2024-01-15T07:49:12;9.55;;;2.78;;
66739;SDS011;53653;52.188;8.602;2024-01-15T07:51:38;8.30;;;2.92;;
66739;SDS011;53653;52.188;8.602;2024-01-15T07:54:05;12.87;;;3.07;;
66739;SDS011;53653;52.188;8.602;2024-01-15T07:56:32;11.60;;;2.75;;
66739;SDS011;53653;52.188;8.602;2024-01-15T07:58:58;10.40;;;2.85;;
66739;SDS011;53653;52.188;8.602;2024-01-15T08:01:23;12.23;;;3.10;;
66739;SDS011;53653;52.188;8.602;2024-01-15T08:03:49;9.13;;;2.60;;
66739;SDS011;53653;52.188;8.602;2024-01-15T08:06:14;8.07;;;2.77;;
66739;SDS011;53653;52.188;8.602;2024-01-15T08:08:40;11.63;;;2.95;;
66739;SDS011;53653;52.188;8.602;2024-01-15T08:11:06;6.70;;;2.60;;
66739;SDS011;53653;52.188;8.602;2024-01-15T08:13:32;9.02;;;2.90;;
66739;SDS011;53653;52.188;8.602;2024-01-15T08:15:57;9.00;;;2.50;;
66739;SDS011;53653;52.188;8.602;2024-01-15T08:18:23;7.80;;;2.45;;
66739;SDS011;53653;52.188;8.602;2024-01-15T08:20:49;9.70;;;2.70;;
66739;SDS011;53653;52.188;8.602;2024-01-15T08:23:16;12.63;;;2.60;;
66739;SDS011;53653;52.188;8.602;2024-01-15T08:25:42;7.63;;;2.25;;
66739;SDS011;53653;52.188;8.602;2024-01-15T08:28:07;7.10;;;2.10;;
66739;SDS011;53653;52.188;8.602;2024-01-15T08:30:33;7.88;;;2.50;;
66739;SDS011;53653;52.188;8.602;2024-01-15T08:32:59;8.43;;;2.75;;
66739;SDS011;53653;52.188;8.602;2024-01-15T08:35:25;8.47;;;2.63;;
66739;SDS011;53653;52.188;8.602;2024-01-15T08:37:54;8.52;;;2.75;;
66739;SDS011;53653;52.188;8.602;2024-01-15T08:40:20;11.90;;;2.90;;
66739;SDS011;53653;52.188;8.602;2024-01-15T08:42:46;8.90;;;2.57;;
66739;SDS011;53653;52.188;8.602;2024-01-15T08:45:11;9.20;;;2.30;;
66739;SDS011;53653;52.188;8.602;2024-01-15T08:47:37;7.72;;;2.13;;
66739;SDS011;53653;52.188;8.602;2024-01-15T08:50:03;10.07;;;2.60;;
66739;SDS011;53653;52.188;8.602;2024-01-15T08:52:29;10.70;;;2.60;;
66739;SDS011;53653;52.188;8.602;2024-01-15T08:54:56;7.03;;;2.07;;
66739;SDS011;53653;52.188;8.602;2024-01-15T08:57:22;6.23;;;2.07;;
66739;SDS011;53653;52.188;8.602;2024-01-15T08:59:47;5.50;;;2.20;;
66739;SDS011;53653;52.188;8.602;2024-01-15T09:02:13;11.90;;;2.37;;
66739;SDS011;53653;52.188;8.602;2024-01-15T09:04:39;7.55;;;2.35;;
66739;SDS011;53653;52.188;8.602;2024-01-15T09:07:05;6.00;;;2.63;;
66739;SDS011;53653;52.188;8.602;2024-01-15T09:09:30;6.45;;;2.33;;
66739;SDS011;53653;52.188;8.602;2024-01-15T09:11:56;6.07;;;2.00;;
66739;SDS011;53653;52.188;8.602;2024-01-15T09:14:22;9.48;;;3.28;;
66739;SDS011;53653;52.188;8.602;2024-01-15T09:16:49;7.63;;;3.15;;
66739;SDS011;53653;52.188;8.602;2024-01-15T09:19:15;8.80;;;2.80;;
66739;SDS011;53653;52.188;8.602;2024-01-15T09:21:41;6.97;;;2.25;;
66739;SDS011;53653;52.188;8.602;2024-01-15T09:24:07;8.97;;;3.53;;
66739;SDS011;53653;52.188;8.602;2024-01-15T09:26:32;10.15;;;3.80;;
66739;SDS011;53653;52.188;8.602;2024-01-15T09:28:58;8.33;;;3.60;;
66739;SDS011;53653;52.188;8.602;2024-01-15T09:31:24;9.20;;;4.03;;
66739;SDS011;53653;52.188;8.602;2024-01-15T09:33:49;8.20;;;3.97;;
66739;SDS011;53653;52.188;8.602;2024-01-15T09:36:21;9.05;;;4.53;;
66739;SDS011;53653;52.188;8.602;2024-01-15T09:38:48;11.15;;;5.10;;
66739;SDS011;53653;52.188;8.602;2024-01-15T09:41:14;11.77;;;5.25;;
66739;SDS011;53653;52.188;8.602;2024-01-15T09:43:40;10.27;;;4.63;;
66739;SDS011;53653;52.188;8.602;2024-01-15T09:46:06;10.57;;;3.92;;
66739;SDS011;53653;52.188;8.602;2024-01-15T09:48:32;7.18;;;3.15;;
66739;SDS011;53653;52.188;8.602;2024-01-15T09:51:01;8.95;;;3.72;;
66739;SDS011;53653;52.188;8.602;2024-01-15T09:53:27;8.80;;;3.67;;
66739;SDS011;53653;52.188;8.602;2024-01-15T09:55:53;13.52;;;4.22;;
66739;SDS011;53653;52.188;8.602;2024-01-15T09:58:19;13.60;;;4.28;;
66739;SDS011;53653;52.188;8.602;2024-01-15T10:00:47;12.23;;;4.13;;
66739;SDS011;53653;52.188;8.602;2024-01-15T10:03:15;10.30;;;4.05;;
66739;SDS011;53653;52.188;8.602;2024-01-15T10:05:41;12.00;;;3.60;;
66739;SDS011;53653;52.188;8.602;2024-01-15T10:08:07;11.07;;;4.10;;
66739;SDS011;53653;52.188;8.602;2024-01-15T10:10:33;9.23;;;3.47;;
66739;SDS011;53653;52.188;8.602;2024-01-15T10:13:01;9.25;;;3.08;;
66739;SDS011;53653;52.188;8.602;2024-01-15T10:15:29;13.82;;;3.40;;
66739;SDS011;53653;52.188;8.602;2024-01-15T10:17:54;12.27;;;4.07;;
66739;SDS011;53653;52.188;8.602;2024-01-15T10:20:20;13.52;;;3.78;;
66739;SDS011;53653;52.188;8.602;2024-01-15T10:22:49;13.00;;;3.10;;
66739;SDS011;53653;52.188;8.602;2024-01-15T10:25:16;11.20;;;3.47;;
66739;SDS011;53653;52.188;8.602;2024-01-15T10:27:47;15.18;;;3.42;;
66739;SDS011;53653;52.188;8.602;2024-01-15T10:30:24;9.35;;;3.45;;
66739;SDS011;53653;52.188;8.602;2024-01-15T10:32:59;12.60;;;3.33;;
66739;SDS011;53653;52.188;8.602;2024-01-15T10:35:32;10.73;;;2.75;;
66739;SDS011;53653;52.188;8.602;2024-01-15T10:38:00;10.50;;;3.35;;
66739;SDS011;53653;52.188;8.602;2024-01-15T10:40:27;7.00;;;2.80;;
66739;SDS011;53653;52.188;8.602;2024-01-15T10:42:53;10.63;;;3.00;;
66739;SDS011;53653;52.188;8.602;2024-01-15T10:45:18;9.85;;;3.40;;
66739;SDS011;53653;52.188;8.602;2024-01-15T10:47:44;11.13;;;4.17;;
66739;SDS011;53653;52.188;8.602;2024-01-15T10:50:10;7.43;;;3.10;;
66739;SDS011;53653;52.188;8.602;2024-01-15T10:52:36;8.73;;;2.93;;
66739;SDS011;53653;52.188;8.602;2024-01-15T10:55:03;8.20;;;3.05;;
66739;SDS011;53653;52.188;8.602;2024-01-15T10:57:30;9.68;;;2.45;;
66739;SDS011;53653;52.188;8.602;2024-01-15T10:59:55;10.70;;;3.27;;
66739;SDS011;53653;52.188;8.602;2024-01-15T11:02:21;11.43;;;3.03;;
66739;SDS011;53653;52.188;8.602;2024-01-15T11:04:47;12.40;;;2.90;;
66739;SDS011;53653;52.188;8.602;2024-01-15T11:07:13;12.47;;;2.60;;
66739;SDS011;53653;52.188;8.602;2024-01-15T11:09:39;8.45;;;2.45;;
66739;SDS011;53653;52.188;8.602;2024-01-15T11:12:11;11.67;;;2.77;;
66739;SDS011;53653;52.188;8.602;2024-01-15T11:14:41;10.23;;;2.45;;
66739;SDS011;53653;52.188;8.602;2024-01-15T11:17:10;11.45;;;3.17;;
66739;SDS011;53653;52.188;8.602;2024-01-15T11:19:47;10.33;;;2.40;;
66739;SDS011;53653;52.188;8.602;2024-01-15T11:24:54;12.45;;;3.00;;
66739;SDS011;53653;52.188;8.602;2024-01-15T11:27:42;10.90;;;2.75;;
66739;SDS011;53653;52.188;8.602;2024-01-15T11:30:09;8.65;;;2.20;;
66739;SDS011;53653;52.188;8.602;2024-01-15T11:32:36;10.90;;;2.60;;
66739;SDS011;53653;52.188;8.602;2024-01-15T11:35:02;8.23;;;2.15;;
66739;SDS011;53653;52.188;8.602;2024-01-15T11:38:01;8.77;;;2.28;;
66739;SDS011;53653;52.188;8.602;2024-01-15T11:40:36;8.40;;;2.15;;
66739;SDS011;53653;52.188;8.602;2024-01-15T11:43:03;7.37;;;2.20;;
66739;SDS011;53653;52.188;8.602;2024-01-15T11:45:30;5.47;;;2.00;;
66739;SDS011;53653;52.188;8.602;2024-01-15T11:50:59;9.43;;;2.20;;
66739;SDS011;53653;52.188;8.602;2024-01-15T11:53:27;7.28;;;2.30;;
66739;SDS011;53653;52.188;8.602;2024-01-15T11:55:59;8.83;;;2.37;;
66739;SDS011;53653;52.188;8.602;2024-01-15T11:58:27;5.30;;;1.85;;
66739;SDS011;53653;52.188;8.602;2024-01-15T12:00:53;6.15;;;1.80;;
66739;SDS011;53653;52.188;8.602;2024-01-15T12:03:20;8.52;;;2.35;;
66739;SDS011;53653;52.188;8.602;2024-01-15T12:05:46;5.90;;;1.70;;
66739;SDS011;53653;52.188;8.602;2024-01-15T12:08:12;5.93;;;2.03;;
66739;SDS011;53653;52.188;8.602;2024-01-15T12:10:38;8.20;;;1.70;;
66739;SDS011;53653;52.188;8.602;2024-01-15T12:13:12;7.55;;;2.20;;
66739;SDS011;53653;52.188;8.602;2024-01-15T12:15:39;10.43;;;2.20;;
66739;SDS011;53653;52.188;8.602;2024-01-15T12:18:09;6.90;;;2.20;;
66739;SDS011;53653;52.188;8.602;2024-01-15T12:20:36;6.63;;;2.25;;
66739;SDS011;53653;52.188;8.602;2024-01-15T12:23:02;7.10;;;2.20;;
66739;SDS011;53653;52.188;8.602;2024-01-15T12:25:28;5.93;;;1.97;;
66739;SDS011;53653;52.188;8.602;2024-01-15T12:27:56;9.43;;;2.13;;
66739;SDS011;53653;52.188;8.602;2024-01-15T12:30:21;9.05;;;2.17;;
66739;SDS011;53653;52.188;8.602;2024-01-15T12:32:47;7.80;;;2.10;;
66739;SDS011;53653;52.188;8.602;2024-01-15T12:35:13;8.07;;;2.22;;
66739;SDS011;53653;52.188;8.602;2024-01-15T12:37:40;8.27;;;2.28;;
66739;SDS011;53653;52.188;8.602;2024-01-15T12:40:07;10.00;;;1.97;;
66739;SDS011;53653;52.188;8.602;2024-01-15T12:42:35;8.65;;;2.47;;
66739;SDS011;53653;52.188;8.602;2024-01-15T12:45:07;7.18;;;2.22;;
66739;SDS011;53653;52.188;8.602;2024-01-15T12:47:34;4.80;;;1.65;;
66739;SDS011;53653;52.188;8.602;2024-01-15T12:50:00;6.85;;;1.90;;
66739;SDS011;53653;52.188;8.602;2024-01-15T12:52:26;7.00;;;2.00;;
66739;SDS011;53653;52.188;8.602;2024-01-15T12:54:52;6.05;;;1.90;;
66739;SDS011;53653;52.188;8.602;2024-01-15T12:57:18;8.83;;;2.23;;
66739;SDS011;53653;52.188;8.602;2024-01-15T12:59:44;8.85;;;2.17;;
66739;SDS011;53653;52.188;8.602;2024-01-15T13:02:10;8.87;;;1.90;;
66739;SDS011;53653;52.188;8.602;2024-01-15T13:04:39;7.88;;;2.03;;
66739;SDS011;53653;52.188;8.602;2024-01-15T13:07:05;9.18;;;2.35;;
66739;SDS011;53653;52.188;8.602;2024-01-15T13:09:32;6.82;;;1.92;;
66739;SDS011;53653;52.188;8.602;2024-01-15T13:11:58;6.90;;;1.53;;
66739;SDS011;53653;52.188;8.602;2024-01-15T13:14:23;8.60;;;2.00;;
66739;SDS011;53653;52.188;8.602;2024-01-15T13:16:49;8.80;;;2.23;;
66739;SDS011;53653;52.188;8.602;2024-01-15T13:19:14;12.00;;;2.50;;
66739;SDS011;53653;52.188;8.602;2024-01-15T13:21:40;6.68;;;2.10;;
66739;SDS011;53653;52.188;8.602;2024-01-15T13:24:06;8.52;;;2.55;;
66739;SDS011;53653;52.188;8.602;2024-01-15T13:26:32;7.87;;;2.80;;
66739;SDS011;53653;52.188;8.602;2024-01-15T13:29:01;7.10;;;2.08;;
66739;SDS011;53653;52.188;8.602;2024-01-15T13:31:28;6.72;;;1.88;;
66739;SDS011;53653;52.188;8.602;2024-01-15T13:33:54;11.43;;;2.35;;
66739;SDS011;53653;52.188;8.602;2024-01-15T13:36:21;5.43;;;2.10;;
66739;SDS011;53653;52.188;8.602;2024-01-15T13:38:50;6.13;;;1.83;;
66739;SDS011;53653;52.188;8.602;2024-01-15T13:41:17;7.35;;;2.58;;
66739;SDS011;53653;52.188;8.602;2024-01-15T13:43:48;5.50;;;1.83;;
66739;SDS011;53653;52.188;8.602;2024-01-15T13:46:14;7.05;;;2.25;;
66739;SDS011;53653;52.188;8.602;2024-01-15T13:48:40;8.70;;;2.37;;
66739;SDS011;53653;52.188;8.602;2024-01-15T13:51:05;7.83;;;2.57;;
66739;SDS011;53653;52.188;8.602;2024-01-15T13:53:31;10.85;;;1.90;;
66739;SDS011;53653;52.188;8.602;2024-01-15T13:55:57;10.80;;;2.27;;
66739;SDS011;53653;52.188;8.602;2024-01-15T13:58:22;8.50;;;2.27;;
66739;SDS011;53653;52.188;8.602;2024-01-15T14:00:47;6.63;;;2.30;;
66739;SDS011;53653;52.188;8.602;2024-01-15T14:03:14;6.60;;;2.07;;
66739;SDS011;53653;52.188;8.602;2024-01-15T14:05:40;7.88;;;2.33;;
66739;SDS011;53653;52.188;8.602;2024-01-15T14:08:05;6.50;;;1.97;;
66739;SDS011;53653;52.188;8.602;2024-01-15T14:10:31;7.22;;;2.05;;
66739;SDS011;53653;52.188;8.602;2024-01-15T14:12:56;9.70;;;2.57;;
66739;SDS011;53653;52.188;8.602;2024-01-15T14:15:21;5.57;;;2.10;;
66739;SDS011;53653;52.188;8.602;2024-01-15T14:17:47;6.03;;;1.83;;
66739;SDS011;53653;52.188;8.602;2024-01-15T14:20:12;7.63;;;2.07;;
66739;SDS011;53653;52.188;8.602;2024-01-15T14:22:38;6.63;;;2.40;;
66739;SDS011;53653;52.188;8.602;2024-01-15T14:25:04;6.50;;;2.30;;
66739;SDS011;53653;52.188;8.602;2024-01-15T14:27:29;6.80;;;2.42;;
66739;SDS011;53653;52.188;8.602;2024-01-15T14:29:55;7.47;;;1.90;;
66739;SDS011;53653;52.188;8.602;2024-01-15T14:32:21;8.32;;;2.67;;
66739;SDS011;53653;52.188;8.602;2024-01-15T14:34:46;8.73;;;2.80;;
66739;SDS011;53653;52.188;8.602;2024-01-15T14:37:12;9.10;;;2.45;;
66739;SDS011;53653;52.188;8.602;2024-01-15T14:39:38;6.87;;;2.80;;
66739;SDS011;53653;52.188;8.602;2024-01-15T14:42:03;7.20;;;2.53;;
66739;SDS011;53653;52.188;8.602;2024-01-15T14:44:29;8.32;;;2.50;;
66739;SDS011;53653;52.188;8.602;2024-01-15T14:46:54;9.60;;;2.27;;